Terminal Aerodrome Forecast
Issued by NWS

Home | Current Version | Previous Version | Text Only | Print | Product List | Glossary On
Versions: 1 2 3 4 5 6 7 8 9 10 11 12 13 14 15 16 17 18 19
000
FTUS45 KRIW 240500
TAFCPR
TAF
KCPR 240533Z 2406/2506 03008KT 6SM -SHRA BR SCT015 OVC030
     FM241700 06012KT P6SM VCSH SCT025 OVC040
     FM242100 03011KT P6SM VCTS SCT025 BKN040CB
     FM250300 02009KT 6SM -SHRA BR SCT015 OVC025=

USA.gov is the U.S. government's official web portal to all federal, state and local government web resources and services.